createdAt,value
2023-03-22T00:01:55.296Z,31.63
2023-03-22T00:04:25.609Z,31.12
2023-03-22T00:06:56.064Z,31.47
2023-03-22T00:09:26.401Z,31.10
2023-03-22T00:11:57.006Z,31.16
2023-03-22T00:14:27.589Z,31.11
2023-03-22T00:16:58.240Z,31.25
2023-03-22T00:19:30.646Z,31.05
2023-03-22T00:22:02.321Z,31.04
2023-03-22T00:24:32.723Z,31.28
2023-03-22T00:27:03.243Z,31.28
2023-03-22T00:29:34.012Z,30.60
2023-03-22T00:32:05.803Z,30.88
2023-03-22T00:34:36.782Z,31.15
2023-03-22T00:37:07.193Z,31.22
2023-03-22T00:39:37.431Z,31.00
2023-03-22T00:42:09.268Z,31.10
2023-03-22T00:44:39.705Z,31.21
2023-03-22T00:47:10.070Z,31.33
2023-03-22T00:49:43.748Z,31.00
2023-03-22T00:52:14.128Z,31.29
2023-03-22T00:54:45.285Z,31.65
2023-03-22T00:57:16.431Z,31.08
2023-03-22T00:59:47.547Z,31.22
2023-03-22T01:02:19.269Z,31.01
2023-03-22T01:04:51.471Z,31.23
2023-03-22T01:07:23.117Z,31.07
2023-03-22T01:09:54.759Z,31.14
2023-03-22T01:12:25.346Z,31.40
2023-03-22T01:14:55.863Z,31.23
2023-03-22T01:17:26.065Z,31.27
2023-03-22T01:19:56.448Z,31.06
2023-03-22T01:22:26.701Z,31.19
2023-03-22T01:24:57.937Z,31.35
2023-03-22T01:27:28.761Z,31.35
2023-03-22T01:30:00.099Z,31.26
2023-03-22T01:32:30.466Z,31.32
2023-03-22T01:35:01.044Z,31.26
2023-03-22T01:37:34.198Z,31.18
2023-03-22T01:40:06.161Z,31.48
2023-03-22T01:42:37.223Z,31.53
2023-03-22T01:45:16.893Z,31.72
2023-03-22T01:47:54.146Z,31.49
2023-03-22T01:50:26.691Z,31.53
2023-03-22T01:52:58.583Z,31.79
2023-03-22T01:55:35.031Z,31.52
2023-03-22T01:58:17.905Z,31.65
2023-03-22T02:00:57.238Z,31.95
2023-03-22T02:04:04.274Z,31.81
2023-03-22T02:06:43.470Z,31.83
2023-03-22T02:09:23.624Z,31.66
2023-03-22T02:12:21.981Z,31.56
2023-03-22T02:15:18.093Z,31.58
2023-03-22T02:18:25.367Z,31.41
2023-03-22T02:21:32.099Z,31.45
2023-03-22T02:24:25.067Z,31.44
2023-03-22T02:27:27.761Z,30.82
2023-03-22T02:30:17.928Z,31.25
2023-03-22T02:33:36.162Z,31.02
2023-03-22T02:36:26.744Z,31.31
2023-03-22T02:39:16.001Z,31.45
2023-03-22T02:42:09.046Z,30.94
2023-03-22T02:44:44.527Z,30.93
2023-03-22T02:47:24.360Z,31.70
2023-03-22T02:50:17.425Z,31.39
2023-03-22T02:53:02.456Z,31.65
2023-03-22T02:55:55.340Z,31.51
2023-03-22T02:58:34.123Z,31.74
2023-03-22T03:01:10.497Z,31.82
2023-03-22T03:03:41.872Z,31.85
2023-03-22T03:06:20.149Z,31.46
2023-03-22T03:08:55.024Z,31.38
2023-03-22T03:11:25.493Z,31.42
2023-03-22T03:13:56.182Z,31.57
2023-03-22T03:16:31.062Z,32.21
2023-03-22T03:19:27.554Z,31.93
2023-03-22T03:22:15.126Z,31.51
2023-03-22T03:25:03.951Z,31.90
2023-03-22T03:27:41.649Z,31.73
2023-03-22T03:30:48.313Z,31.92
2023-03-22T03:33:22.467Z,32.49
2023-03-22T03:36:14.215Z,31.66
2023-03-22T03:38:49.721Z,32.13
2023-03-22T03:41:26.617Z,32.23
2023-03-22T03:43:59.976Z,32.40
2023-03-22T03:46:30.854Z,31.62
2023-03-22T03:49:02.353Z,31.73
2023-03-22T03:51:32.973Z,31.82
2023-03-22T03:54:03.359Z,32.27
2023-03-22T03:56:33.740Z,32.23
2023-03-22T03:59:04.121Z,32.39
2023-03-22T04:01:34.700Z,31.52
2023-03-22T04:04:20.198Z,32.04
2023-03-22T04:06:54.537Z,31.59
2023-03-22T04:09:32.214Z,31.74
2023-03-22T04:12:12.801Z,31.73
2023-03-22T04:14:44.442Z,31.99
2023-03-22T04:17:23.760Z,31.86
2023-03-22T04:19:55.077Z,31.78
2023-03-22T04:22:26.789Z,32.09
2023-03-22T04:24:57.443Z,32.22
2023-03-22T04:27:28.925Z,32.00
2023-03-22T04:30:06.923Z,32.25
2023-03-22T04:32:55.187Z,32.31
2023-03-22T04:35:36.373Z,31.97
2023-03-22T04:38:06.867Z,32.63
2023-03-22T04:40:40.134Z,32.76
2023-03-22T04:43:20.443Z,32.41
2023-03-22T04:46:03.299Z,32.75
2023-03-22T04:48:44.008Z,32.75
2023-03-22T04:51:14.681Z,32.05
2023-03-22T04:53:56.178Z,32.36
2023-03-22T04:56:27.177Z,31.93
2023-03-22T04:58:57.548Z,32.89
2023-03-22T05:01:28.011Z,32.33
2023-03-22T05:04:11.076Z,32.83
2023-03-22T05:06:41.832Z,32.03
2023-03-22T05:09:23.636Z,32.99
2023-03-22T05:11:56.331Z,32.54
2023-03-22T05:14:42.437Z,32.10
2023-03-22T05:17:15.097Z,32.45
2023-03-22T05:19:47.347Z,32.14
2023-03-22T05:22:17.765Z,32.00
2023-03-22T05:24:51.546Z,32.27
2023-03-22T05:27:32.807Z,32.54
2023-03-22T05:30:11.468Z,32.54
2023-03-22T05:33:07.345Z,32.89
2023-03-22T05:35:43.899Z,32.35
2023-03-22T05:38:14.956Z,32.90
2023-03-22T05:40:50.003Z,32.45
2023-03-22T05:43:21.886Z,32.99
2023-03-22T05:45:53.575Z,32.57
2023-03-22T05:48:49.776Z,32.59
2023-03-22T05:51:21.253Z,33.30
2023-03-22T05:53:55.079Z,32.32
2023-03-22T05:56:29.979Z,32.40
2023-03-22T05:59:08.510Z,32.99
2023-03-22T06:01:39.089Z,33.35
2023-03-22T06:04:20.185Z,33.26
2023-03-22T06:07:03.226Z,32.46
2023-03-22T06:09:41.341Z,32.31
2023-03-22T06:12:18.775Z,32.59
2023-03-22T06:14:54.564Z,32.79
2023-03-22T06:17:43.861Z,32.22
2023-03-22T06:20:17.824Z,33.39
2023-03-22T06:22:54.493Z,32.64
2023-03-22T06:25:25.745Z,33.47
2023-03-22T06:27:56.224Z,32.50
2023-03-22T06:30:28.055Z,32.90
2023-03-22T06:33:20.880Z,32.99
2023-03-22T06:35:57.708Z,32.68
2023-03-22T06:38:34.572Z,33.20
2023-03-22T06:41:05.925Z,32.67
2023-03-22T06:43:36.762Z,32.48
2023-03-22T06:46:24.976Z,32.63
2023-03-22T06:49:04.188Z,33.54
2023-03-22T06:51:34.703Z,33.05
2023-03-22T06:54:04.930Z,33.63
2023-03-22T06:56:35.255Z,33.49
2023-03-22T06:59:05.600Z,32.39
2023-03-22T07:01:36.173Z,33.09
2023-03-22T07:04:07.070Z,33.59
2023-03-22T07:06:37.456Z,33.06
2023-03-22T07:09:08.291Z,33.12
2023-03-22T07:11:39.847Z,33.13
2023-03-22T07:14:11.746Z,32.93
2023-03-22T07:17:09.325Z,32.98
2023-03-22T07:19:39.967Z,33.89
2023-03-22T07:22:11.730Z,32.95
2023-03-22T07:24:55.703Z,33.79
2023-03-22T07:27:29.489Z,33.04
2023-03-22T07:30:00.206Z,33.73
2023-03-22T07:32:31.432Z,33.38
2023-03-22T07:35:11.704Z,32.84
2023-03-22T07:37:43.694Z,33.05
2023-03-22T07:40:22.398Z,33.99
2023-03-22T07:42:55.979Z,34.45
2023-03-22T07:45:46.726Z,33.31
2023-03-22T07:48:49.505Z,34.08
2023-03-22T07:51:39.648Z,33.07
2023-03-22T07:54:10.744Z,33.20
2023-03-22T07:56:44.094Z,34.25
2023-03-22T07:59:15.149Z,34.12
2023-03-22T08:01:46.312Z,34.15
2023-03-22T08:04:35.697Z,33.93
2023-03-22T08:07:39.029Z,33.20
2023-03-22T08:10:10.616Z,34.04
2023-03-22T08:12:41.061Z,34.16
2023-03-22T08:15:22.535Z,34.14
2023-03-22T08:17:53.319Z,34.45
2023-03-22T08:20:33.413Z,33.44
2023-03-22T08:23:12.847Z,33.77
2023-03-22T08:26:01.982Z,33.69
2023-03-22T08:28:32.490Z,33.39
2023-03-22T08:31:02.965Z,33.52
2023-03-22T08:33:35.294Z,33.33
2023-03-22T08:36:16.794Z,33.19
2023-03-22T08:38:55.690Z,33.31
2023-03-22T08:41:36.586Z,33.66
2023-03-22T08:44:07.914Z,33.34
2023-03-22T08:46:39.309Z,33.48
2023-03-22T08:49:12.001Z,33.29
2023-03-22T08:51:51.865Z,33.51
2023-03-22T08:54:42.736Z,33.45
2023-03-22T08:57:39.440Z,33.93
2023-03-22T09:00:39.061Z,34.21
2023-03-22T09:03:22.386Z,33.98
2023-03-22T09:05:53.487Z,34.33
2023-03-22T09:08:24.004Z,34.04
2023-03-22T09:11:00.877Z,33.29
2023-03-22T09:13:33.898Z,33.46
2023-03-22T09:16:10.481Z,33.13
2023-03-22T09:18:43.014Z,33.28
2023-03-22T09:21:19.349Z,33.69
2023-03-22T09:24:00.747Z,34.19
2023-03-22T09:26:41.552Z,34.26
2023-03-22T09:29:12.570Z,34.04
2023-03-22T09:31:43.337Z,34.21
2023-03-22T09:34:33.580Z,33.68
2023-03-22T09:37:04.586Z,34.08
2023-03-22T09:39:46.115Z,33.79
2023-03-22T09:42:43.788Z,33.33
2023-03-22T09:45:22.694Z,33.59
2023-03-22T09:47:57.984Z,33.12
2023-03-22T09:50:33.136Z,34.48
2023-03-22T09:53:04.094Z,34.24
2023-03-22T09:55:41.438Z,34.11
2023-03-22T09:58:22.350Z,33.75
2023-03-22T10:01:24.846Z,34.27
2023-03-22T10:04:09.843Z,33.24
2023-03-22T10:06:42.085Z,33.73
2023-03-22T10:09:37.375Z,34.42
2023-03-22T10:12:18.460Z,34.18
2023-03-22T10:14:53.737Z,34.62
2023-03-22T10:17:29.306Z,34.39
2023-03-22T10:20:10.401Z,34.58
2023-03-22T10:22:46.057Z,34.14
2023-03-22T10:25:22.035Z,33.62
2023-03-22T10:27:53.462Z,33.33
2023-03-22T10:30:30.649Z,34.47
2023-03-22T10:33:15.568Z,34.17
2023-03-22T10:35:46.274Z,34.68
2023-03-22T10:38:26.175Z,34.69
2023-03-22T10:41:00.281Z,33.85
2023-03-22T10:43:52.815Z,33.57
2023-03-22T10:46:27.698Z,34.23
2023-03-22T10:49:02.748Z,34.49
2023-03-22T10:51:53.083Z,34.56
2023-03-22T10:54:26.493Z,33.59
2023-03-22T10:56:57.026Z,34.50
2023-03-22T10:59:52.676Z,34.50
2023-03-22T11:02:32.401Z,34.66
2023-03-22T11:05:08.728Z,34.51
2023-03-22T11:07:46.733Z,34.22
2023-03-22T11:10:37.094Z,33.96
2023-03-22T11:13:13.262Z,34.79
2023-03-22T11:15:52.770Z,33.97
2023-03-22T11:18:23.660Z,34.62
2023-03-22T11:21:12.282Z,33.93
2023-03-22T11:23:57.766Z,34.45
2023-03-22T11:26:32.170Z,33.91
2023-03-22T11:29:29.391Z,34.05
2023-03-22T11:32:01.700Z,34.50
2023-03-22T11:34:33.562Z,34.37
2023-03-22T11:37:10.007Z,34.33
2023-03-22T11:39:51.516Z,34.78
2023-03-22T11:42:23.529Z,34.16
2023-03-22T11:44:55.044Z,34.92
2023-03-22T11:47:28.797Z,34.74
2023-03-22T11:50:00.085Z,34.95
2023-03-22T11:52:30.576Z,34.80
2023-03-22T11:55:03.218Z,34.20
2023-03-22T11:57:37.702Z,34.60
2023-03-22T12:00:28.211Z,34.48
2023-03-22T12:03:01.532Z,34.89
2023-03-22T12:05:33.488Z,34.88
2023-03-22T12:08:18.251Z,34.33
2023-03-22T12:10:54.221Z,34.78
2023-03-22T12:13:24.423Z,34.13
2023-03-22T12:16:01.224Z,34.40
2023-03-22T12:18:35.563Z,34.10
2023-03-22T12:21:06.233Z,34.88
2023-03-22T12:23:37.302Z,34.32
2023-03-22T12:26:17.590Z,34.32
2023-03-22T12:29:06.244Z,35.13
2023-03-22T12:31:44.266Z,34.84
2023-03-22T12:34:26.346Z,34.56
2023-03-22T12:36:59.176Z,35.01
2023-03-22T12:39:39.852Z,34.85
2023-03-22T12:42:29.302Z,35.38
2023-03-22T12:45:18.413Z,35.66
2023-03-22T12:47:53.368Z,35.29
2023-03-22T12:50:36.086Z,34.53
2023-03-22T12:53:07.985Z,35.30
2023-03-22T12:55:41.401Z,34.61
2023-03-22T12:58:15.906Z,34.50
2023-03-22T13:01:47.062Z,35.15
2023-03-22T13:04:38.826Z,35.65
2023-03-22T13:07:32.407Z,34.75
2023-03-22T13:10:38.437Z,35.45
2023-03-22T13:13:14.932Z,34.80
2023-03-22T13:16:25.971Z,35.69
2023-03-22T13:19:00.637Z,34.49
2023-03-22T13:21:35.299Z,35.62
2023-03-22T13:24:10.348Z,34.73
2023-03-22T13:26:55.738Z,34.70
2023-03-22T13:29:35.833Z,35.63
2023-03-22T13:32:46.236Z,34.68
2023-03-22T13:35:52.743Z,35.66
2023-03-22T13:38:28.838Z,34.97
2023-03-22T13:41:09.669Z,35.25
2023-03-22T13:44:04.791Z,35.40
2023-03-22T13:46:40.284Z,35.15
2023-03-22T13:49:33.915Z,35.66
2023-03-22T13:52:09.284Z,35.24
2023-03-22T13:54:53.867Z,35.52
2023-03-22T13:57:50.646Z,35.59
2023-03-22T14:00:33.217Z,34.80
2023-03-22T14:03:25.205Z,34.81
2023-03-22T14:06:26.826Z,35.75
2023-03-22T14:09:03.740Z,34.80
2023-03-22T14:11:50.838Z,35.98
2023-03-22T14:14:33.558Z,34.97
2023-03-22T14:17:22.928Z,35.09
2023-03-22T14:19:54.998Z,36.00
